Time;durP1;ratioP1;P1;durP2;ratioP2;P2;SDS_P1;SDS_P2;PMS_P1;PMS_P2;Temp;Humidity;BMP_temperature;BMP_pressure;BME280_temperature;BME280_humidity;BME280_pressure;Samples;Min_cycle;Max_cycle;Signal;HPM_P1;HPM_P2
2023/09/01 00:02:49;;;;;;;9.65;4.63;;;;;;;15.64;100.00;101107.41;10457038;28;20452;-69
2023/09/01 00:07:49;;;;;;;10.93;5.55;;;;;;;15.69;100.00;101101.28;10454374;28;20032;-69
2023/09/01 00:12:50;;;;;;;9.18;4.97;;;;;;;15.71;100.00;101093.72;10455681;28;20033;-69
2023/09/01 00:17:50;;;;;;;11.38;4.82;;;;;;;15.73;100.00;101091.59;10455721;28;20087;-69
2023/09/01 00:22:50;;;;;;;8.75;4.15;;;;;;;15.77;100.00;101101.00;10454830;28;20044;-69
2023/09/01 00:27:51;;;;;;;8.55;5.30;;;;;;;15.81;100.00;101107.69;10438666;28;20048;-69
2023/09/01 00:32:51;;;;;;;7.85;4.70;;;;;;;15.84;100.00;101104.50;10455678;28;20443;-69
2023/09/01 00:37:52;;;;;;;6.00;4.32;;;;;;;15.83;100.00;101105.56;10454703;28;20029;-69
2023/09/01 00:42:52;;;;;;;12.77;4.82;;;;;;;15.85;100.00;101099.88;10455832;28;20558;-69
2023/09/01 00:47:52;;;;;;;6.93;3.80;;;;;;;15.85;100.00;101100.69;10453259;28;20527;-69
2023/09/01 00:52:54;;;;;;;6.95;4.50;;;;;;;15.86;100.00;101107.00;10453158;28;20033;-69
2023/09/01 00:57:54;;;;;;;14.25;4.65;;;;;;;15.83;100.00;101093.81;10453701;28;20397;-69
2023/09/01 01:02:55;;;;;;;5.70;4.05;;;;;;;15.84;100.00;101092.75;10454103;28;20037;-69
2023/09/01 01:08:17;;;;;;;8.90;4.07;;;;;;;15.85;100.00;101100.69;10452749;28;20033;-69
2023/09/01 01:13:19;;;;;;;6.80;3.53;;;;;;;15.92;100.00;101109.66;10446688;28;20036;-69
2023/09/01 01:18:20;;;;;;;3.97;3.58;;;;;;;15.94;100.00;101109.44;10453340;28;20033;-69
2023/09/01 01:23:20;;;;;;;9.70;3.72;;;;;;;15.93;100.00;101108.59;10436013;28;20037;-69
2023/09/01 01:28:22;;;;;;;11.80;4.35;;;;;;;15.90;100.00;101109.06;10453865;28;20091;-69
2023/09/01 01:33:33;;;;;;;7.70;5.18;;;;;;;15.83;100.00;101093.81;10453095;28;20065;-69
2023/09/01 01:38:34;;;;;;;8.20;5.50;;;;;;;15.78;100.00;101097.22;10453321;28;20021;-70
2023/09/01 01:43:34;;;;;;;10.40;6.70;;;;;;;15.75;100.00;101101.22;10453984;28;20033;-70
2023/09/01 01:48:36;;;;;;;10.20;5.80;;;;;;;15.70;100.00;101095.63;10451913;28;20044;-69
2023/09/01 01:53:37;;;;;;;8.05;5.50;;;;;;;15.66;100.00;101088.91;10453207;28;20037;-69
2023/09/01 01:58:39;;;;;;;10.38;4.15;;;;;;;15.64;100.00;101080.13;10451711;28;20071;-69
2023/09/01 02:03:40;;;;;;;9.52;6.10;;;;;;;15.59;100.00;101085.41;10455760;28;20045;-69
2023/09/01 02:08:40;;;;;;;9.95;6.05;;;;;;;15.61;100.00;101082.47;10461205;28;20049;-69
2023/09/01 02:13:41;;;;;;;15.68;5.07;;;;;;;15.61;100.00;101088.75;10458884;28;20044;-69
2023/09/01 02:18:41;;;;;;;7.20;4.88;;;;;;;15.60;100.00;101092.53;10441445;28;20059;-69
2023/09/01 02:23:42;;;;;;;7.70;6.88;;;;;;;15.58;100.00;101087.31;10459616;28;20120;-69
2023/09/01 02:28:43;;;;;;;6.80;6.10;;;;;;;15.59;100.00;101091.69;10459911;28;20036;-69
2023/09/01 02:33:43;;;;;;;15.40;6.65;;;;;;;15.52;100.00;101080.03;10460627;28;20060;-69
2023/09/01 02:38:43;;;;;;;12.07;6.82;;;;;;;15.51;100.00;101083.81;10474191;28;20075;-69
2023/09/01 02:43:45;;;;;;;24.98;8.32;;;;;;;15.48;100.00;101069.81;10441008;28;20029;-70
2023/09/01 02:48:45;;;;;;;11.88;5.40;;;;;;;15.39;100.00;101065.69;10458863;28;20033;-69
2023/09/01 02:53:46;;;;;;;9.95;5.20;;;;;;;15.44;100.00;101072.13;10440310;28;20036;-69
2023/09/01 02:58:46;;;;;;;29.83;6.80;;;;;;;15.46;100.00;101066.44;10457347;28;20333;-69
2023/09/01 03:03:47;;;;;;;9.40;6.07;;;;;;;15.46;100.00;101067.28;10440564;28;20041;-69
2023/09/01 03:08:47;;;;;;;11.20;5.97;;;;;;;15.48;100.00;101075.25;10457237;28;20082;-69
2023/09/01 03:13:48;;;;;;;10.43;5.63;;;;;;;15.44;100.00;101071.28;10455338;28;20037;-69
2023/09/01 03:18:48;;;;;;;13.27;7.43;;;;;;;15.39;100.00;101077.44;10458484;28;20025;-69
2023/09/01 03:23:48;;;;;;;13.40;7.43;;;;;;;15.41;100.00;101077.19;10457591;28;20083;-69
2023/09/01 03:28:49;;;;;;;8.38;7.45;;;;;;;15.25;100.00;101067.69;10457694;28;20536;-70
2023/09/01 03:33:50;;;;;;;10.82;8.05;;;;;;;15.22;100.00;101060.81;10457666;28;20064;-69
2023/09/01 03:38:50;;;;;;;15.35;8.38;;;;;;;15.20;100.00;101064.81;10456634;28;20047;-69
2023/09/01 03:43:50;;;;;;;13.10;6.60;;;;;;;15.21;100.00;101071.94;10457368;28;20029;-69
2023/09/01 03:48:51;;;;;;;18.33;8.25;;;;;;;15.19;100.00;101071.31;10454476;28;20072;-69
2023/09/01 03:53:51;;;;;;;15.93;7.50;;;;;;;15.18;100.00;101065.03;10456071;28;20116;-69
2023/09/01 03:58:52;;;;;;;14.43;7.80;;;;;;;15.19;100.00;101060.41;10453993;28;20043;-69
2023/09/01 04:03:52;;;;;;;21.90;9.43;;;;;;;15.20;100.00;101053.91;10456327;28;20147;-69
2023/09/01 04:08:53;;;;;;;9.40;7.90;;;;;;;15.18;100.00;101048.66;10455889;28;20060;-69
2023/09/01 04:13:55;;;;;;;19.50;8.55;;;;;;;15.23;100.00;101056.19;10455049;28;20040;-69
2023/09/01 04:18:56;;;;;;;10.98;6.20;;;;;;;15.28;100.00;101059.91;10456503;28;20032;-69
2023/09/01 04:23:56;;;;;;;11.43;7.93;;;;;;;15.28;100.00;101049.00;10454854;28;20348;-69
2023/09/01 04:28:57;;;;;;;12.73;7.25;;;;;;;15.26;100.00;101053.84;10453377;28;20120;-69
2023/09/01 04:33:57;;;;;;;9.48;6.60;;;;;;;15.24;100.00;101057.84;10454846;28;20477;-69
2023/09/01 04:38:58;;;;;;;8.05;5.95;;;;;;;15.22;100.00;101051.78;10435976;28;20045;-69
2023/09/01 04:43:59;;;;;;;17.15;6.18;;;;;;;15.19;100.00;101053.09;10453138;28;20044;-69
2023/09/01 04:48:59;;;;;;;13.15;5.55;;;;;;;15.29;100.00;101063.47;10454203;28;20071;-70
2023/09/01 04:53:59;;;;;;;8.23;6.60;;;;;;;15.28;100.00;101065.38;10452899;28;20040;-70
2023/09/01 04:59:00;;;;;;;8.18;5.78;;;;;;;15.23;100.00;101054.28;10452678;28;20041;-70
2023/09/01 05:04:00;;;;;;;8.20;6.50;;;;;;;15.29;100.00;101047.94;10453963;28;20048;-70
2023/09/01 05:09:03;;;;;;;8.88;5.57;;;;;;;15.32;100.00;101052.94;10453595;28;20041;-69
2023/09/01 05:14:04;;;;;;;7.32;6.05;;;;;;;15.33;100.00;101059.22;10454258;28;20063;-69
2023/09/01 05:19:04;;;;;;;10.80;6.93;;;;;;;15.34;100.00;101071.81;10453581;28;20037;-69
2023/09/01 05:24:05;;;;;;;14.63;7.00;;;;;;;15.40;100.00;101064.63;10453382;28;20043;-69
2023/09/01 05:29:05;;;;;;;9.30;7.40;;;;;;;15.49;100.00;101057.81;10453597;28;20123;-69
2023/09/01 05:34:06;;;;;;;9.30;7.72;;;;;;;15.53;100.00;101059.03;10451907;28;20060;-69
2023/09/01 05:39:07;;;;;;;11.50;7.20;;;;;;;15.62;100.00;101062.28;10458496;28;20051;-69
2023/09/01 05:44:07;;;;;;;23.05;8.00;;;;;;;15.66;100.00;101058.88;10460533;28;20058;-69
2023/09/01 05:49:08;;;;;;;10.43;7.70;;;;;;;15.62;100.00;101070.47;10460966;28;20476;-69
2023/09/01 05:54:08;;;;;;;9.10;8.00;;;;;;;15.54;100.00;101067.00;10460658;28;20432;-69
2023/09/01 05:59:08;;;;;;;8.52;6.75;;;;;;;15.55;100.00;101078.75;10460178;28;20040;-69
2023/09/01 06:04:09;;;;;;;10.80;8.27;;;;;;;15.59;100.00;101064.41;10442457;28;20500;-69
2023/09/01 06:09:09;;;;;;;8.82;7.93;;;;;;;15.59;100.00;101078.06;10461087;28;20033;-69
2023/09/01 06:14:10;;;;;;;8.85;7.20;;;;;;;15.68;100.00;101078.63;10459973;28;20025;-69
2023/09/01 06:19:10;;;;;;;11.73;7.35;;;;;;;15.73;100.00;101077.94;10458031;28;20091;-69
2023/09/01 06:24:11;;;;;;;12.15;7.85;;;;;;;15.73;100.00;101077.94;10459722;28;20041;-69
2023/09/01 06:29:12;;;;;;;8.70;7.32;;;;;;;15.72;100.00;101082.56;10458628;28;20069;-69
2023/09/01 06:34:12;;;;;;;9.98;7.10;;;;;;;15.78;100.00;101089.03;10458895;28;20405;-69
2023/09/01 06:39:13;;;;;;;12.05;8.45;;;;;;;15.79;100.00;101093.41;10459631;28;20048;-69
2023/09/01 06:44:14;;;;;;;17.10;9.95;;;;;;;15.89;100.00;101092.88;10459475;28;20495;-69
2023/09/01 06:49:15;;;;;;;12.00;7.82;;;;;;;15.90;100.00;101095.41;10458830;28;20049;-69
2023/09/01 06:54:15;;;;;;;9.85;7.38;;;;;;;15.90;100.00;101098.13;10456812;28;20432;-69
2023/09/01 06:59:16;;;;;;;12.88;7.90;;;;;;;15.90;100.00;101100.03;10458456;28;20029;-69
2023/09/01 07:04:17;;;;;;;13.77;7.78;;;;;;;15.86;100.00;101088.72;10458280;28;20477;-69
2023/09/01 07:09:18;;;;;;;6.82;6.15;;;;;;;15.88;100.00;101092.03;10458493;28;20064;-69
2023/09/01 07:14:18;;;;;;;13.38;8.02;;;;;;;15.88;100.00;101091.22;10457713;28;20044;-69
2023/09/01 07:19:19;;;;;;;10.68;8.73;;;;;;;15.89;100.00;101081.94;10456632;28;20056;-69
2023/09/01 07:24:19;;;;;;;8.68;6.90;;;;;;;16.00;100.00;101081.19;10455667;28;20392;-69
2023/09/01 07:29:20;;;;;;;8.98;6.78;;;;;;;16.11;100.00;101071.38;10455630;28;20071;-69
2023/09/01 07:34:20;;;;;;;15.80;6.97;;;;;;;16.15;100.00;101078.91;10456180;28;20060;-69
2023/09/01 07:39:20;;;;;;;7.65;6.75;;;;;;;16.21;100.00;101083.47;10454672;28;20052;-69
2023/09/01 07:44:21;;;;;;;10.98;7.72;;;;;;;16.30;100.00;101080.38;10457518;28;20039;-69
2023/09/01 07:49:21;;;;;;;10.10;6.53;;;;;;;16.37;100.00;101087.44;10438667;28;20091;-69
2023/09/01 07:54:22;;;;;;;11.13;7.43;;;;;;;16.34;100.00;101081.63;10455825;28;20472;-69
2023/09/01 07:59:23;;;;;;;16.00;7.72;;;;;;;16.22;100.00;101076.91;10454727;28;20041;-69
2023/09/01 08:04:23;;;;;;;12.07;7.32;;;;;;;16.20;100.00;101087.22;10456334;28;20039;-69
2023/09/01 08:09:24;;;;;;;11.30;8.50;;;;;;;16.14;100.00;101087.31;10456629;28;20052;-69
2023/09/01 08:14:24;;;;;;;14.27;7.18;;;;;;;16.23;100.00;101092.25;10454905;28;20036;-69
2023/09/01 08:19:25;;;;;;;7.00;5.53;;;;;;;16.18;100.00;101091.28;10455497;28;20111;-69
2023/09/01 08:24:25;;;;;;;13.55;6.50;;;;;;;16.23;100.00;101105.06;10455406;28;20477;-69
2023/09/01 08:29:26;;;;;;;16.55;6.32;;;;;;;16.26;100.00;101096.41;10454767;28;20029;-69
2023/09/01 08:34:27;;;;;;;13.48;6.10;;;;;;;16.24;100.00;101087.59;10436804;28;20049;-69
2023/09/01 08:39:27;;;;;;;9.18;6.47;;;;;;;16.36;100.00;101102.16;10453805;28;20116;-69
2023/09/01 08:44:28;;;;;;;19.13;6.53;;;;;;;16.40;100.00;101097.91;10454520;28;20037;-69
2023/09/01 08:49:28;;;;;;;13.43;6.97;;;;;;;16.54;100.00;101100.47;10452549;28;20053;-69
2023/09/01 08:54:30;;;;;;;10.77;5.72;;;;;;;16.54;100.00;101114.13;10452865;28;20025;-69
2023/09/01 08:59:31;;;;;;;9.10;6.97;;;;;;;16.57;100.00;101125.44;10436078;28;20033;-69
2023/09/01 09:04:32;;;;;;;7.03;5.70;;;;;;;16.65;100.00;101118.78;10453881;28;20037;-69
2023/09/01 09:09:32;;;;;;;7.57;6.03;;;;;;;16.60;100.00;101126.88;10452698;28;20468;-69
2023/09/01 09:14:33;;;;;;;14.57;7.03;;;;;;;16.64;100.00;101119.88;10458548;28;20045;-69
2023/09/01 09:19:33;;;;;;;7.90;6.45;;;;;;;16.82;100.00;101129.97;10446160;28;20049;-69
2023/09/01 09:24:34;;;;;;;13.18;8.35;;;;;;;16.89;100.00;101128.78;10443553;28;20108;-69
2023/09/01 09:29:40;;;;;;;9.48;6.70;;;;;;;17.08;100.00;101115.84;10443466;28;20059;-69
2023/09/01 09:34:40;;;;;;;8.48;7.32;;;;;;;17.49;100.00;101116.03;10461135;28;20080;-69
2023/09/01 09:39:43;;;;;;;11.00;6.72;;;;;;;18.31;100.00;101138.69;10444656;28;20069;-69
2023/09/01 09:44:43;;;;;;;12.15;8.07;;;;;;;18.92;100.00;101146.41;10461560;28;20033;-69
2023/09/01 09:49:43;;;;;;;7.70;6.25;;;;;;;18.54;100.00;101139.69;10460364;28;20071;-70
2023/09/01 09:54:44;;;;;;;13.82;6.32;;;;;;;18.24;100.00;101143.44;10459561;28;20025;-69
2023/09/01 09:59:48;;;;;;;6.80;6.07;;;;;;;18.12;100.00;101159.09;10442032;28;20111;-69
2023/09/01 10:04:49;;;;;;;7.47;6.78;;;;;;;18.06;100.00;101157.31;10442461;28;20098;-69
2023/09/01 10:09:50;;;;;;;7.88;6.00;;;;;;;18.02;100.00;101178.88;10476887;28;20102;-70
2023/09/01 10:14:50;;;;;;;8.63;7.53;;;;;;;18.07;100.00;101175.44;10459182;28;20032;-69
2023/09/01 10:19:50;;;;;;;8.00;5.82;;;;;;;18.30;100.00;101177.28;10459117;28;20453;-70
2023/09/01 10:25:15;;;;;;;9.60;6.05;;;;;;;18.62;100.00;101191.38;10458168;28;20049;-70
2023/09/01 10:30:30;;;;;;;8.38;7.57;;;;;;;18.80;100.00;101199.47;10430752;28;20069;-70
2023/09/01 10:35:44;;;;;;;10.35;6.20;;;;;;;18.99;100.00;101185.53;10456168;28;20053;-70
2023/09/01 10:40:54;;;;;;;8.55;7.68;;;;;;;19.23;100.00;101184.31;10457174;28;20039;-69
2023/09/01 10:46:16;;;;;;;10.55;7.35;;;;;;;19.49;100.00;101187.47;10455525;28;20082;-70
2023/09/01 10:51:17;;;;;;;14.27;7.53;;;;;;;20.33;100.00;101183.78;10456688;28;20064;-70
2023/09/01 10:56:19;;;;;;;8.38;6.63;;;;;;;20.93;100.00;101184.75;10471683;28;20069;-70
2023/09/01 11:01:29;;;;;;;7.10;6.28;;;;;;;21.37;100.00;101174.47;10456324;28;20064;-70
2023/09/01 11:06:29;;;;;;;5.38;4.88;;;;;;;21.82;100.00;101190.53;10456066;28;20043;-70
2023/09/01 11:11:29;;;;;;;6.00;4.40;;;;;;;22.14;100.00;101192.34;10437958;28;20366;-70
2023/09/01 11:16:30;;;;;;;4.63;4.32;;;;;;;21.99;100.00;101181.25;10456062;28;20068;-70
2023/09/01 11:21:30;;;;;;;5.38;4.97;;;;;;;22.50;100.00;101174.06;10455665;28;20044;-70
2023/09/01 11:26:31;;;;;;;7.47;6.78;;;;;;;23.48;100.00;101190.81;10455927;28;20029;-69
2023/09/01 11:31:41;;;;;;;6.70;6.07;;;;;;;23.33;100.00;101192.50;10397687;28;1132402;-70
2023/09/01 11:36:45;;;;;;;4.35;4.05;;;;;;;23.19;100.00;101202.41;10456000;28;20049;-70
2023/09/01 11:41:46;;;;;;;5.45;4.95;;;;;;;22.42;100.00;101206.88;10439466;28;20164;-70
2023/09/01 11:46:46;;;;;;;8.93;7.78;;;;;;;21.79;100.00;101221.38;10455839;28;20094;-70
2023/09/01 11:51:46;;;;;;;7.03;6.43;;;;;;;21.31;100.00;101219.56;10455161;28;20036;-70
2023/09/01 11:56:47;;;;;;;6.88;6.18;;;;;;;21.03;100.00;101227.03;10438667;28;20450;-70
2023/09/01 12:01:47;;;;;;;7.78;7.18;;;;;;;20.82;100.00;101225.13;10455388;28;20090;-69
2023/09/01 12:06:49;;;;;;;10.65;6.82;;;;;;;21.10;100.00;101213.88;10453835;28;20116;-70
2023/09/01 12:11:53;;;;;;;7.85;7.10;;;;;;;21.11;100.00;101214.69;10438234;28;20068;-70
2023/09/01 12:16:54;;;;;;;16.48;12.15;;;;;;;20.95;100.00;101224.72;10437380;28;20044;-70
2023/09/01 12:21:56;;;;;;;13.98;12.63;;;;;;;21.04;100.00;101233.34;10455766;28;20037;-69
2023/09/01 12:26:57;;;;;;;14.48;13.00;;;;;;;21.05;100.00;101237.75;10437429;28;20029;-70
2023/09/01 12:31:57;;;;;;;19.05;14.52;;;;;;;21.21;100.00;101233.25;10437424;28;20061;-70
2023/09/01 12:36:57;;;;;;;16.17;14.55;;;;;;;23.65;100.00;101227.31;10453933;28;20433;-70
2023/09/01 12:41:58;;;;;;;16.60;14.95;;;;;;;25.27;100.00;101230.66;10453994;28;20036;-70
2023/09/01 12:46:58;;;;;;;17.73;14.25;;;;;;;25.14;100.00;101231.28;10454418;28;20040;-70
2023/09/01 12:51:59;;;;;;;15.45;14.00;;;;;;;24.68;100.00;101245.38;10454263;28;20029;-70
2023/09/01 12:56:59;;;;;;;20.77;14.50;;;;;;;25.09;100.00;101253.47;10453266;28;20111;-70
2023/09/01 13:02:01;;;;;;;16.17;11.73;;;;;;;24.33;100.00;101243.53;10469225;28;20037;-70
2023/09/01 13:07:01;;;;;;;11.57;10.48;;;;;;;23.63;100.00;101251.63;10436204;28;20116;-70
2023/09/01 13:12:01;;;;;;;18.08;12.15;;;;;;;23.03;100.00;101247.69;10453718;28;20497;-70
2023/09/01 13:17:02;;;;;;;11.20;9.90;;;;;;;22.35;100.00;101251.25;10454226;28;20408;-70
2023/09/01 13:22:02;;;;;;;11.93;9.13;;;;;;;22.38;100.00;101260.94;10452565;28;20116;-70
2023/09/01 13:27:03;;;;;;;10.15;9.25;;;;;;;24.09;100.00;101243.31;10454475;28;20028;-70
2023/09/01 13:32:03;;;;;;;11.75;10.07;;;;;;;24.95;95.86;101249.66;10452782;28;20057;-70
2023/09/01 13:37:09;;;;;;;11.23;8.85;;;;;;;24.56;98.82;101250.41;10434623;28;20063;-70
2023/09/01 13:42:10;;;;;;;12.60;8.87;;;;;;;24.14;100.00;101255.22;10451800;28;20029;-70
2023/09/01 13:47:10;;;;;;;7.45;6.53;;;;;;;22.95;94.79;101262.88;10452509;28;20270;-70
2023/09/01 13:52:11;;;;;;;6.88;6.20;;;;;;;22.65;100.00;101253.31;10453840;28;20040;-71
2023/09/01 13:57:12;;;;;;;7.15;6.45;;;;;;;23.03;100.00;101253.22;10451780;28;20388;-70
2023/09/01 14:02:12;;;;;;;7.25;6.63;;;;;;;22.86;100.00;101250.66;10442339;28;20128;-70
2023/09/01 14:07:13;;;;;;;7.10;6.32;;;;;;;22.72;100.00;101250.34;10460114;28;20037;-70
2023/09/01 14:12:13;;;;;;;10.38;9.38;;;;;;;22.77;100.00;101239.31;10459908;28;20037;-70
2023/09/01 14:17:13;;;;;;;15.18;10.10;;;;;;;22.24;100.00;101246.81;10459656;28;20029;-70
2023/09/01 14:22:15;;;;;;;9.95;9.00;;;;;;;21.61;100.00;101254.88;10459290;28;20043;-70
2023/09/01 14:27:15;;;;;;;9.10;8.30;;;;;;;21.18;100.00;101251.09;10459266;28;20033;-70
2023/09/01 14:32:16;;;;;;;9.65;8.07;;;;;;;21.19;100.00;101251.97;10458982;28;20468;-70
2023/09/01 14:37:16;;;;;;;10.55;9.55;;;;;;;20.96;100.00;101247.56;10458908;28;20053;-70
2023/09/01 14:42:16;;;;;;;15.57;10.40;;;;;;;20.79;100.00;101251.25;10458868;28;20098;-70
2023/09/01 14:47:17;;;;;;;11.27;10.07;;;;;;;20.79;100.00;101254.00;10458520;28;20128;-70
2023/09/01 14:52:17;;;;;;;12.05;9.95;;;;;;;20.77;100.00;101255.34;10458359;28;20041;-70
2023/09/01 14:57:18;;;;;;;10.63;9.73;;;;;;;20.64;100.00;101268.41;10457512;28;20051;-70
2023/09/01 15:02:18;;;;;;;14.35;11.02;;;;;;;20.35;100.00;101264.13;10458389;28;20029;-70
2023/09/01 15:07:19;;;;;;;10.10;8.45;;;;;;;20.36;100.00;101268.56;10458451;28;20059;-70
2023/09/01 15:12:20;;;;;;;15.68;11.45;;;;;;;20.18;100.00;101269.66;10457828;28;20040;-70
2023/09/01 15:17:20;;;;;;;13.55;11.40;;;;;;;19.94;100.00;101280.88;10457419;28;20102;-70
2023/09/01 15:22:21;;;;;;;14.50;12.65;;;;;;;19.67;100.00;101286.16;10457308;28;20103;-70
2023/09/01 15:27:21;;;;;;;12.45;10.88;;;;;;;19.44;100.00;101283.53;10457660;28;20036;-68
2023/09/01 15:32:22;;;;;;;12.52;11.25;;;;;;;19.33;100.00;101284.41;10457073;28;20053;-68
2023/09/01 15:37:22;;;;;;;12.13;10.52;;;;;;;19.26;100.00;101276.34;10457161;28;20061;-68
2023/09/01 15:42:22;;;;;;;24.20;13.07;;;;;;;19.21;100.00;101274.34;10456380;28;20045;-68
2023/09/01 15:47:23;;;;;;;14.00;12.57;;;;;;;19.13;100.00;101277.47;10455537;28;20037;-68
2023/09/01 15:52:23;;;;;;;14.77;13.25;;;;;;;19.10;100.00;101286.19;10457213;28;20143;-68
2023/09/01 15:57:23;;;;;;;15.55;12.52;;;;;;;18.92;100.00;101287.22;10456639;28;20025;-68
2023/09/01 16:02:24;;;;;;;14.95;13.50;;;;;;;18.96;100.00;101291.16;10456602;28;20049;-68
2023/09/01 16:07:24;;;;;;;14.68;11.85;;;;;;;18.85;100.00;101291.19;10456130;28;20040;-68
2023/09/01 16:12:26;;;;;;;16.42;12.18;;;;;;;18.70;100.00;101289.75;10455514;28;20094;-68
2023/09/01 16:17:26;;;;;;;14.43;12.82;;;;;;;18.58;100.00;101289.78;10455102;28;20427;-68
2023/09/01 16:22:27;;;;;;;16.27;13.38;;;;;;;18.50;100.00;101286.56;10454437;28;20037;-69
2023/09/01 16:27:28;;;;;;;14.13;12.68;;;;;;;18.41;100.00;101280.63;10453312;28;20523;-70
2023/09/01 16:32:29;;;;;;;16.33;12.73;;;;;;;18.30;100.00;101285.03;10455404;28;20469;-70
2023/09/01 16:37:30;;;;;;;18.08;12.90;;;;;;;18.27;100.00;101287.44;10453626;28;20361;-70
2023/09/01 16:42:31;;;;;;;10.27;9.27;;;;;;;18.21;100.00;101286.47;10453898;28;20365;-70
2023/09/01 16:47:31;;;;;;;12.18;8.32;;;;;;;18.22;100.00;101285.41;10452517;28;20112;-71
2023/09/01 16:52:32;;;;;;;6.82;6.18;;;;;;;18.23;100.00;101284.34;10454742;28;20124;-70
2023/09/01 16:57:35;;;;;;;8.18;4.93;;;;;;;18.23;100.00;101291.72;10453717;28;20033;-71
2023/09/01 17:02:36;;;;;;;5.63;5.10;;;;;;;18.34;100.00;101297.19;10453219;28;20052;-71
2023/09/01 17:07:36;;;;;;;13.02;5.38;;;;;;;18.41;100.00;101304.47;10455129;28;20068;-71
2023/09/01 17:12:36;;;;;;;6.38;5.60;;;;;;;18.41;100.00;101304.47;10453934;28;20040;-71
2023/09/01 17:17:37;;;;;;;6.82;6.22;;;;;;;18.34;100.00;101321.88;10452490;28;20119;-71
2023/09/01 17:22:37;;;;;;;8.07;5.57;;;;;;;18.31;100.00;101322.38;10453695;28;20415;-71
2023/09/01 17:27:38;;;;;;;9.63;5.15;;;;;;;18.25;100.00;101326.06;10453616;28;20413;-71
2023/09/01 17:32:38;;;;;;;9.60;5.00;;;;;;;18.31;100.00;101322.38;10455937;28;20036;-72
2023/09/01 17:37:39;;;;;;;6.97;5.72;;;;;;;18.28;100.00;101322.84;10420359;28;20517;-71
2023/09/01 17:42:40;;;;;;;6.90;5.43;;;;;;;18.35;100.00;101331.78;10420031;28;20090;-72
2023/09/01 17:47:41;;;;;;;7.72;5.50;;;;;;;18.39;100.00;101340.34;10418028;28;20038;-72
2023/09/01 17:52:41;;;;;;;5.78;4.85;;;;;;;18.38;100.00;101343.31;10418116;28;20084;-72
2023/09/01 17:57:43;;;;;;;6.82;5.53;;;;;;;18.38;100.00;101343.31;10419062;28;20034;-72
2023/09/01 18:02:44;;;;;;;5.75;4.28;;;;;;;18.42;100.00;101350.84;10418098;28;20036;-73
2023/09/01 18:07:44;;;;;;;5.00;4.60;;;;;;;18.36;100.00;101352.63;10419115;28;20533;-73
2023/09/01 18:12:45;;;;;;;9.82;4.97;;;;;;;18.38;100.00;101368.00;10419106;28;20057;-72
2023/09/01 18:17:45;;;;;;;4.60;3.70;;;;;;;18.33;100.00;101372.31;10419057;28;20465;-73
2023/09/01 18:22:48;;;;;;;4.75;4.25;;;;;;;18.29;100.00;101379.34;10418790;28;20120;-73
2023/09/01 18:27:49;;;;;;;6.45;4.90;;;;;;;18.19;100.00;101384.56;10416867;28;20128;-73
2023/09/01 18:32:49;;;;;;;5.20;4.70;;;;;;;18.16;100.00;101389.69;10420964;28;20120;-72
2023/09/01 18:37:49;;;;;;;5.30;4.07;;;;;;;18.13;100.00;101402.78;10459634;28;20036;-72
2023/09/01 18:42:53;;;;;;;4.35;3.78;;;;;;;18.09;100.00;101407.09;10459604;28;20128;-72
2023/09/01 18:47:53;;;;;;;13.05;4.50;;;;;;;18.06;100.00;101414.91;10459954;28;20044;-73
2023/09/01 18:52:55;;;;;;;8.35;5.07;;;;;;;17.98;100.00;101424.31;10458645;28;20476;-73
2023/09/01 18:57:55;;;;;;;7.22;4.68;;;;;;;17.98;100.00;101438.03;10440205;28;20116;-72
2023/09/01 19:02:55;;;;;;;5.20;4.00;;;;;;;18.03;100.00;101434.59;10457466;28;20072;-73
2023/09/01 19:08:05;;;;;;;4.75;4.35;;;;;;;18.01;100.00;101442.22;10456188;28;20057;-73
2023/09/01 19:13:06;;;;;;;5.50;5.10;;;;;;;17.94;100.00;101449.69;10439809;28;20055;-73
2023/09/01 19:18:08;;;;;;;6.07;5.40;;;;;;;17.85;100.00;101458.22;10456651;28;20036;-72
2023/09/01 19:23:18;;;;;;;7.43;6.82;;;;;;;17.82;100.00;101447.72;10439489;28;20061;-73
2023/09/01 19:28:18;;;;;;;7.53;6.68;;;;;;;17.80;100.00;101466.31;10457102;28;20060;-72
2023/09/01 19:33:19;;;;;;;8.43;7.30;;;;;;;17.78;100.00;101468.44;10456801;28;20049;-73
2023/09/01 19:38:23;;;;;;;9.13;8.18;;;;;;;17.69;100.00;101472.53;10455392;28;20029;-73
2023/09/01 19:43:26;;;;;;;7.90;7.13;;;;;;;17.61;100.00;101483.81;10439340;28;20039;-73
2023/09/01 19:48:29;;;;;;;10.15;9.10;;;;;;;17.50;100.00;101485.41;10456269;28;20461;-73
2023/09/01 19:53:30;;;;;;;10.60;9.48;;;;;;;17.43;100.00;101477.28;10454023;28;20106;-73
2023/09/01 19:58:30;;;;;;;11.10;9.85;;;;;;;17.36;100.00;101476.53;10453736;28;20037;-72
2023/09/01 20:03:31;;;;;;;12.63;11.45;;;;;;;17.31;100.00;101484.59;10438787;28;20151;-72
2023/09/01 20:08:31;;;;;;;13.95;12.25;;;;;;;17.24;100.00;101485.75;10455474;28;20159;-73
2023/09/01 20:13:35;;;;;;;19.20;14.55;;;;;;;17.23;100.00;101495.00;10453863;28;20484;-72
2023/09/01 20:18:35;;;;;;;16.55;14.90;;;;;;;17.17;100.00;101483.06;10454918;28;20028;-72
2023/09/01 20:23:36;;;;;;;24.42;15.15;;;;;;;17.13;100.00;101490.03;10454478;28;20036;-72
2023/09/01 20:28:36;;;;;;;21.02;17.27;;;;;;;17.13;100.00;101499.13;10452779;28;20438;-73
2023/09/01 20:33:37;;;;;;;21.35;18.35;;;;;;;17.10;100.00;101495.97;10454247;28;20076;-73
2023/09/01 20:38:39;;;;;;;31.33;16.98;;;;;;;17.02;100.00;101516.25;10453809;28;20048;-73
2023/09/01 20:43:39;;;;;;;31.00;19.25;;;;;;;17.00;100.00;101528.50;10454773;28;20074;-72
2023/09/01 20:48:40;;;;;;;29.92;20.35;;;;;;;17.05;100.00;101532.22;10453639;28;20037;-72
2023/09/01 20:53:40;;;;;;;33.55;21.25;;;;;;;17.14;100.00;101538.25;10455524;28;20036;-73
2023/09/01 20:58:41;;;;;;;32.67;22.52;;;;;;;17.07;100.00;101529.25;10453950;28;20099;-73
2023/09/01 21:03:41;;;;;;;31.27;22.10;;;;;;;17.00;100.00;101537.53;10452717;28;20060;-73
2023/09/01 21:08:42;;;;;;;27.20;23.33;;;;;;;16.98;100.00;101539.66;10458858;28;20036;-72
2023/09/01 21:13:42;;;;;;;33.90;23.02;;;;;;;17.01;100.00;101546.59;10462661;28;20029;-72
2023/09/01 21:18:43;;;;;;;33.00;25.13;;;;;;;17.01;100.00;101535.66;10461765;28;20149;-72
2023/09/01 21:23:43;;;;;;;32.65;24.45;;;;;;;16.93;100.00;101544.97;10428626;28;20048;-73
2023/09/01 21:28:44;;;;;;;37.28;26.92;;;;;;;16.93;100.00;101544.97;10462252;28;20039;-73
2023/09/01 21:33:44;;;;;;;36.67;26.27;;;;;;;16.98;100.00;101549.78;10460887;28;20412;-72
2023/09/01 21:38:44;;;;;;;38.45;25.45;;;;;;;16.99;100.00;101546.81;10461667;28;20044;-73
2023/09/01 21:43:45;;;;;;;34.42;26.88;;;;;;;17.01;100.00;101541.13;10461270;28;20483;-73
2023/09/01 21:48:45;;;;;;;34.60;26.17;;;;;;;17.01;100.00;101550.16;10443263;28;20063;-73
2023/09/01 21:53:46;;;;;;;41.88;31.08;;;;;;;16.99;100.00;101555.03;10459536;28;20124;-73
2023/09/01 21:58:47;;;;;;;37.28;26.75;;;;;;;17.01;100.00;101552.06;10460785;28;20044;-73
2023/09/01 22:03:48;;;;;;;38.72;29.35;;;;;;;16.96;100.00;101555.47;10461255;28;20032;-73
2023/09/01 22:08:50;;;;;;;49.90;30.02;;;;;;;16.91;100.00;101547.06;10461215;28;20037;-73
2023/09/01 22:13:50;;;;;;;40.35;29.85;;;;;;;16.88;100.00;101556.59;10460154;28;20033;-73
2023/09/01 22:18:51;;;;;;;40.90;28.67;;;;;;;16.83;100.00;101572.81;10440804;28;20064;-72
2023/09/01 22:23:51;;;;;;;52.33;32.35;;;;;;;16.86;100.00;101575.13;10457904;28;20120;-72
2023/09/01 22:28:52;;;;;;;34.45;28.58;;;;;;;16.82;100.00;101584.00;10458212;28;20053;-72
2023/09/01 22:33:53;;;;;;;50.67;28.67;;;;;;;16.72;100.00;101573.53;10460175;28;20049;-72